sensor_id;sensor_type;location;lat;lon;timestamp;pressure;altitude;pressure_sealevel;temperature;humidity
4836;BME280;66719;51.226;6.902;2023-04-15T00:00:57;99958.91;;;7.46;100.00
4836;BME280;66719;51.226;6.902;2023-04-15T00:03:25;99961.50;;;7.48;100.00
4836;BME280;66719;51.226;6.902;2023-04-15T00:05:52;99961.44;;;7.51;100.00
4836;BME280;66719;51.226;6.902;2023-04-15T00:08:18;99957.91;;;7.53;100.00
4836;BME280;66719;51.226;6.902;2023-04-15T00:10:45;99959.78;;;7.45;100.00
4836;BME280;66719;51.226;6.902;2023-04-15T00:13:12;99964.94;;;7.50;100.00
4836;BME280;66719;51.226;6.902;2023-04-15T00:15:38;99951.09;;;7.48;100.00
4836;BME280;66719;51.226;6.902;2023-04-15T00:18:05;99962.28;;;7.51;100.00
4836;BME280;66719;51.226;6.902;2023-04-15T00:20:34;99961.41;;;7.52;100.00
4836;BME280;66719;51.226;6.902;2023-04-15T00:23:01;99961.34;;;7.57;100.00
4836;BME280;66719;51.226;6.902;2023-04-15T00:25:29;99960.56;;;7.50;100.00
4836;BME280;66719;51.226;6.902;2023-04-15T00:27:55;99963.25;;;7.47;100.00
4836;BME280;66719;51.226;6.902;2023-04-15T00:30:22;99964.16;;;7.45;100.00
4836;BME280;66719;51.226;6.902;2023-04-15T00:32:49;99957.25;;;7.42;100.00
4836;BME280;66719;51.226;6.902;2023-04-15T00:35:16;99958.13;;;7.43;100.00
4836;BME280;66719;51.226;6.902;2023-04-15T00:37:42;99964.00;;;7.52;100.00
4836;BME280;66719;51.226;6.902;2023-04-15T00:40:12;99959.56;;;7.59;100.00
4836;BME280;66719;51.226;6.902;2023-04-15T00:42:39;99965.69;;;7.56;100.00
4836;BME280;66719;51.226;6.902;2023-04-15T00:45:06;99964.88;;;7.53;100.00
4836;BME280;66719;51.226;6.902;2023-04-15T00:47:35;99959.75;;;7.48;100.00
4836;BME280;66719;51.226;6.902;2023-04-15T00:50:03;99958.97;;;7.43;100.00
4836;BME280;66719;51.226;6.902;2023-04-15T00:52:30;99958.03;;;7.46;100.00
4836;BME280;66719;51.226;6.902;2023-04-15T00:54:57;99958.91;;;7.48;100.00
4836;BME280;66719;51.226;6.902;2023-04-15T00:57:25;99958.94;;;7.45;100.00
4836;BME280;66719;51.226;6.902;2023-04-15T00:59:52;99964.22;;;7.42;100.00
4836;BME280;66719;51.226;6.902;2023-04-15T01:02:20;99969.63;;;7.31;100.00
4836;BME280;66719;51.226;6.902;2023-04-15T01:04:48;99966.00;;;7.38;100.00
4836;BME280;66719;51.226;6.902;2023-04-15T01:07:15;99961.81;;;7.29;100.00
4836;BME280;66719;51.226;6.902;2023-04-15T01:09:41;99957.41;;;7.33;100.00
4836;BME280;66719;51.226;6.902;2023-04-15T01:12:11;99961.91;;;7.25;100.00
4836;BME280;66719;51.226;6.902;2023-04-15T01:14:39;99951.53;;;7.23;100.00
4836;BME280;66719;51.226;6.902;2023-04-15T01:17:06;99949.88;;;7.18;100.00
4836;BME280;66719;51.226;6.902;2023-04-15T01:19:32;99946.38;;;7.19;100.00
4836;BME280;66719;51.226;6.902;2023-04-15T01:21:59;99945.69;;;7.09;100.00
4836;BME280;66719;51.226;6.902;2023-04-15T01:24:26;99950.84;;;7.11;100.00
4836;BME280;66719;51.226;6.902;2023-04-15T01:26:54;99945.66;;;7.11;100.00
4836;BME280;66719;51.226;6.902;2023-04-15T01:29:20;99951.72;;;7.13;100.00
4836;BME280;66719;51.226;6.902;2023-04-15T01:31:51;99950.03;;;7.08;100.00
4836;BME280;66719;51.226;6.902;2023-04-15T01:34:18;99957.91;;;7.05;100.00
4836;BME280;66719;51.226;6.902;2023-04-15T01:36:44;99950.03;;;7.08;100.00
4836;BME280;66719;51.226;6.902;2023-04-15T01:39:11;99951.00;;;7.03;100.00
4836;BME280;66719;51.226;6.902;2023-04-15T01:41:38;99943.25;;;7.00;100.00
4836;BME280;66719;51.226;6.902;2023-04-15T01:44:06;99946.78;;;6.96;100.00
4836;BME280;66719;51.226;6.902;2023-04-15T01:46:34;99949.41;;;6.94;100.00
4836;BME280;66719;51.226;6.902;2023-04-15T01:49:01;99957.13;;;7.00;100.00
4836;BME280;66719;51.226;6.902;2023-04-15T01:51:28;99951.03;;;7.00;100.00
4836;BME280;66719;51.226;6.902;2023-04-15T01:53:54;99948.53;;;6.95;100.00
4836;BME280;66719;51.226;6.902;2023-04-15T01:56:24;99947.81;;;6.87;100.00
4836;BME280;66719;51.226;6.902;2023-04-15T01:58:51;99949.41;;;6.94;100.00
4836;BME280;66719;51.226;6.902;2023-04-15T02:01:17;99950.44;;;6.84;100.00
4836;BME280;66719;51.226;6.902;2023-04-15T02:03:47;99949.53;;;6.88;100.00
4836;BME280;66719;51.226;6.902;2023-04-15T02:06:14;99949.47;;;6.91;100.00
4836;BME280;66719;51.226;6.902;2023-04-15T02:08:41;99953.88;;;6.88;100.00
4836;BME280;66719;51.226;6.902;2023-04-15T02:11:07;99954.72;;;6.88;100.00
4836;BME280;66719;51.226;6.902;2023-04-15T02:13:34;99953.94;;;6.82;100.00
4836;BME280;66719;51.226;6.902;2023-04-15T02:16:01;99953.97;;;6.80;100.00
4836;BME280;66719;51.226;6.902;2023-04-15T02:18:28;99948.81;;;6.77;100.00
4836;BME280;66719;51.226;6.902;2023-04-15T02:20:55;99959.22;;;6.78;100.00
4836;BME280;66719;51.226;6.902;2023-04-15T02:23:23;99964.50;;;6.72;100.00
4836;BME280;66719;51.226;6.902;2023-04-15T02:25:50;99963.78;;;6.63;100.00
4836;BME280;66719;51.226;6.902;2023-04-15T02:28:19;99963.72;;;6.66;100.00
4836;BME280;66719;51.226;6.902;2023-04-15T02:30:49;99966.41;;;6.61;100.00
4836;BME280;66719;51.226;6.902;2023-04-15T02:33:19;99963.94;;;6.54;100.00
4836;BME280;66719;51.226;6.902;2023-04-15T02:35:46;99968.22;;;6.56;100.00
4836;BME280;66719;51.226;6.902;2023-04-15T02:38:13;99967.38;;;6.54;100.00
4836;BME280;66719;51.226;6.902;2023-04-15T02:40:41;99969.03;;;6.58;100.00
4836;BME280;66719;51.226;6.902;2023-04-15T02:43:08;99974.28;;;6.55;100.00
4836;BME280;66719;51.226;6.902;2023-04-15T02:45:34;99980.38;;;6.54;100.00
4836;BME280;66719;51.226;6.902;2023-04-15T02:48:01;99974.31;;;6.54;100.00
4836;BME280;66719;51.226;6.902;2023-04-15T02:50:31;99982.13;;;6.54;100.00
4836;BME280;66719;51.226;6.902;2023-04-15T02:52:58;99980.41;;;6.53;100.00
4836;BME280;66719;51.226;6.902;2023-04-15T02:55:26;99982.28;;;6.41;100.00
4836;BME280;66719;51.226;6.902;2023-04-15T02:57:53;99985.97;;;6.27;100.00
4836;BME280;66719;51.226;6.902;2023-04-15T03:00:19;99986.94;;;6.18;100.00
4836;BME280;66719;51.226;6.902;2023-04-15T03:02:46;99994.00;;;6.08;100.00
4836;BME280;66719;51.226;6.902;2023-04-15T03:05:15;99999.19;;;6.07;100.00
4836;BME280;66719;51.226;6.902;2023-04-15T03:07:41;99993.97;;;6.10;100.00
4836;BME280;66719;51.226;6.902;2023-04-15T03:10:08;99998.22;;;6.15;100.00
4836;BME280;66719;51.226;6.902;2023-04-15T03:12:35;99993.13;;;6.09;100.00
4836;BME280;66719;51.226;6.902;2023-04-15T03:15:02;99991.38;;;6.10;100.00
4836;BME280;66719;51.226;6.902;2023-04-15T03:17:28;100001.78;;;6.07;100.00
4836;BME280;66719;51.226;6.902;2023-04-15T03:19:55;99998.34;;;6.05;100.00
4836;BME280;66719;51.226;6.902;2023-04-15T03:22:22;99991.50;;;6.01;100.00
4836;BME280;66719;51.226;6.902;2023-04-15T03:24:48;99995.00;;;5.95;100.00
4836;BME280;66719;51.226;6.902;2023-04-15T03:27:15;99999.34;;;5.94;100.00
4836;BME280;66719;51.226;6.902;2023-04-15T03:29:41;99995.88;;;5.95;100.00
4836;BME280;66719;51.226;6.902;2023-04-15T03:32:08;100000.19;;;5.97;100.00
4836;BME280;66719;51.226;6.902;2023-04-15T03:34:34;100001.88;;;5.99;100.00
4836;BME280;66719;51.226;6.902;2023-04-15T03:37:01;100000.22;;;5.95;100.00
4836;BME280;66719;51.226;6.902;2023-04-15T03:39:27;100004.47;;;6.01;100.00
4836;BME280;66719;51.226;6.902;2023-04-15T03:41:54;100003.63;;;5.97;100.00
4836;BME280;66719;51.226;6.902;2023-04-15T03:44:21;100004.56;;;5.88;100.00
4836;BME280;66719;51.226;6.902;2023-04-15T03:46:48;100013.34;;;5.78;100.00
4836;BME280;66719;51.226;6.902;2023-04-15T03:49:14;100010.81;;;5.71;100.00
4836;BME280;66719;51.226;6.902;2023-04-15T03:51:41;100012.53;;;5.73;100.00
4836;BME280;66719;51.226;6.902;2023-04-15T03:54:07;100010.66;;;5.87;100.00
4836;BME280;66719;51.226;6.902;2023-04-15T03:56:34;100019.28;;;5.89;100.00
4836;BME280;66719;51.226;6.902;2023-04-15T03:59:01;100020.13;;;5.90;100.00
4836;BME280;66719;51.226;6.902;2023-04-15T04:01:28;100022.72;;;5.90;100.00
4836;BME280;66719;51.226;6.902;2023-04-15T04:03:54;100023.63;;;5.89;100.00
4836;BME280;66719;51.226;6.902;2023-04-15T04:06:21;100029.66;;;5.89;100.00
4836;BME280;66719;51.226;6.902;2023-04-15T04:08:48;100027.94;;;5.90;100.00
4836;BME280;66719;51.226;6.902;2023-04-15T04:11:14;100034.03;;;5.92;100.00
4836;BME280;66719;51.226;6.902;2023-04-15T04:13:41;100030.56;;;5.91;100.00
4836;BME280;66719;51.226;6.902;2023-04-15T04:16:07;100030.47;;;6.01;100.00
4836;BME280;66719;51.226;6.902;2023-04-15T04:18:34;100033.06;;;6.01;100.00
4836;BME280;66719;51.226;6.902;2023-04-15T04:21:01;100033.84;;;6.06;100.00
4836;BME280;66719;51.226;6.902;2023-04-15T04:23:27;100037.31;;;6.06;100.00
4836;BME280;66719;51.226;6.902;2023-04-15T04:25:54;100035.63;;;6.02;100.00
4836;BME280;66719;51.226;6.902;2023-04-15T04:28:20;100032.13;;;6.05;100.00
4836;BME280;66719;51.226;6.902;2023-04-15T04:30:47;100035.66;;;5.99;100.00
4836;BME280;66719;51.226;6.902;2023-04-15T04:33:13;100044.34;;;5.97;100.00
4836;BME280;66719;51.226;6.902;2023-04-15T04:35:40;100035.66;;;5.98;100.00
4836;BME280;66719;51.226;6.902;2023-04-15T04:38:06;100043.56;;;5.91;100.00
4836;BME280;66719;51.226;6.902;2023-04-15T04:40:33;100047.06;;;5.84;100.00
4836;BME280;66719;51.226;6.902;2023-04-15T04:42:59;100049.59;;;5.93;100.00
4836;BME280;66719;51.226;6.902;2023-04-15T04:45:26;100049.63;;;5.87;100.00
4836;BME280;66719;51.226;6.902;2023-04-15T04:47:52;100064.34;;;5.87;100.00
4836;BME280;66719;51.226;6.902;2023-04-15T04:50:19;100048.78;;;5.84;100.00
4836;BME280;66719;51.226;6.902;2023-04-15T04:52:45;100058.34;;;5.80;100.00
4836;BME280;66719;51.226;6.902;2023-04-15T04:55:12;100067.06;;;5.75;100.00
4836;BME280;66719;51.226;6.902;2023-04-15T04:57:38;100060.13;;;5.75;100.00
4836;BME280;66719;51.226;6.902;2023-04-15T05:00:06;100064.47;;;5.73;100.00
4836;BME280;66719;51.226;6.902;2023-04-15T05:02:34;100067.06;;;5.73;100.00
4836;BME280;66719;51.226;6.902;2023-04-15T05:05:00;100067.97;;;5.71;100.00
4836;BME280;66719;51.226;6.902;2023-04-15T05:07:27;100071.50;;;5.62;100.00
4836;BME280;66719;51.226;6.902;2023-04-15T05:09:53;100068.94;;;5.59;100.00
4836;BME280;66719;51.226;6.902;2023-04-15T05:12:20;100069.00;;;5.51;100.00
4836;BME280;66719;51.226;6.902;2023-04-15T05:14:46;100072.50;;;5.49;100.00
4836;BME280;66719;51.226;6.902;2023-04-15T05:17:13;100069.03;;;5.50;100.00
4836;BME280;66719;51.226;6.902;2023-04-15T05:19:39;100067.34;;;5.44;100.00
4836;BME280;66719;51.226;6.902;2023-04-15T05:22:06;100072.59;;;5.36;100.00
4836;BME280;66719;51.226;6.902;2023-04-15T05:24:33;100081.22;;;5.38;100.00
4836;BME280;66719;51.226;6.902;2023-04-15T05:26:59;100073.44;;;5.37;100.00
4836;BME280;66719;51.226;6.902;2023-04-15T05:29:27;100080.38;;;5.36;100.00
4836;BME280;66719;51.226;6.902;2023-04-15T05:31:53;100082.97;;;5.36;100.00
4836;BME280;66719;51.226;6.902;2023-04-15T05:34:20;100085.56;;;5.39;100.00
4836;BME280;66719;51.226;6.902;2023-04-15T05:36:47;100088.97;;;5.43;100.00
4836;BME280;66719;51.226;6.902;2023-04-15T05:39:14;100086.38;;;5.43;100.00
4836;BME280;66719;51.226;6.902;2023-04-15T05:41:40;100088.09;;;5.46;100.00
4836;BME280;66719;51.226;6.902;2023-04-15T05:44:07;100095.00;;;5.50;100.00
4836;BME280;66719;51.226;6.902;2023-04-15T05:46:33;100088.84;;;5.60;100.00
4836;BME280;66719;51.226;6.902;2023-04-15T05:49:00;100095.69;;;5.67;100.00
4836;BME280;66719;51.226;6.902;2023-04-15T05:51:27;100099.97;;;5.71;100.00
4836;BME280;66719;51.226;6.902;2023-04-15T05:53:53;100100.78;;;5.79;100.00
4836;BME280;66719;51.226;6.902;2023-04-15T05:56:20;100108.50;;;5.91;100.00
4836;BME280;66719;51.226;6.902;2023-04-15T05:58:47;100111.88;;;6.01;100.00
4836;BME280;66719;51.226;6.902;2023-04-15T06:01:13;100116.09;;;6.10;100.00
4836;BME280;66719;51.226;6.902;2023-04-15T06:03:40;100121.13;;;6.25;100.00
4836;BME280;66719;51.226;6.902;2023-04-15T06:06:08;100118.25;;;6.49;100.00
4836;BME280;66719;51.226;6.902;2023-04-15T06:08:35;100122.31;;;6.72;100.00
4836;BME280;66719;51.226;6.902;2023-04-15T06:11:01;100129.81;;;6.93;100.00
4836;BME280;66719;51.226;6.902;2023-04-15T06:13:28;100135.63;;;7.12;100.00
4836;BME280;66719;51.226;6.902;2023-04-15T06:15:54;100134.63;;;7.24;100.00
4836;BME280;66719;51.226;6.902;2023-04-15T06:18:21;100135.38;;;7.32;100.00
4836;BME280;66719;51.226;6.902;2023-04-15T06:20:47;100146.59;;;7.35;100.00
4836;BME280;66719;51.226;6.902;2023-04-15T06:23:14;100145.66;;;7.38;100.00
4836;BME280;66719;51.226;6.902;2023-04-15T06:25:40;100148.22;;;7.43;100.00
4836;BME280;66719;51.226;6.902;2023-04-15T06:28:07;100155.09;;;7.48;100.00
4836;BME280;66719;51.226;6.902;2023-04-15T06:30:34;100150.59;;;7.58;100.00
4836;BME280;66719;51.226;6.902;2023-04-15T06:33:01;100150.47;;;7.65;100.00
4836;BME280;66719;51.226;6.902;2023-04-15T06:35:30;100158.16;;;7.72;100.00
4836;BME280;66719;51.226;6.902;2023-04-15T06:37:57;100154.56;;;7.82;100.00
4836;BME280;66719;51.226;6.902;2023-04-15T06:40:23;100156.91;;;7.96;100.00
4836;BME280;66719;51.226;6.902;2023-04-15T06:42:50;100153.22;;;8.09;100.00
4836;BME280;66719;51.226;6.902;2023-04-15T06:45:17;100166.00;;;8.22;100.00
4836;BME280;66719;51.226;6.902;2023-04-15T06:47:43;100150.91;;;8.40;100.00
4836;BME280;66719;51.226;6.902;2023-04-15T06:50:10;100170.72;;;8.50;100.00
4836;BME280;66719;51.226;6.902;2023-04-15T06:52:36;100167.06;;;8.59;100.00
4836;BME280;66719;51.226;6.902;2023-04-15T06:55:03;100166.75;;;8.75;100.00
4836;BME280;66719;51.226;6.902;2023-04-15T06:57:30;100172.75;;;8.81;100.00
4836;BME280;66719;51.226;6.902;2023-04-15T07:00:00;100172.50;;;8.91;100.00
4836;BME280;66719;51.226;6.902;2023-04-15T07:02:26;100175.97;;;8.92;100.00
4836;BME280;66719;51.226;6.902;2023-04-15T07:04:53;100179.38;;;8.97;100.00
4836;BME280;66719;51.226;6.902;2023-04-15T07:07:20;100181.94;;;8.98;100.00
4836;BME280;66719;51.226;6.902;2023-04-15T07:09:47;100185.34;;;9.02;100.00
4836;BME280;66719;51.226;6.902;2023-04-15T07:12:14;100186.19;;;9.04;100.00
4836;BME280;66719;51.226;6.902;2023-04-15T07:14:40;100193.09;;;9.06;100.00
4836;BME280;66719;51.226;6.902;2023-04-15T07:17:08;100193.75;;;9.16;100.00
4836;BME280;66719;51.226;6.902;2023-04-15T07:19:34;100198.97;;;9.16;100.00
4836;BME280;66719;51.226;6.902;2023-04-15T07:22:02;100200.69;;;9.17;100.00
4836;BME280;66719;51.226;6.902;2023-04-15T07:24:29;100211.13;;;9.17;100.00
4836;BME280;66719;51.226;6.902;2023-04-15T07:26:56;100202.44;;;9.17;100.00
4836;BME280;66719;51.226;6.902;2023-04-15T07:29:26;100213.75;;;9.17;100.00
4836;BME280;66719;51.226;6.902;2023-04-15T07:31:52;100221.53;;;9.19;100.00
4836;BME280;66719;51.226;6.902;2023-04-15T07:34:19;100219.75;;;9.22;100.00
4836;BME280;66719;51.226;6.902;2023-04-15T07:36:46;100224.06;;;9.23;100.00
4836;BME280;66719;51.226;6.902;2023-04-15T07:39:16;100231.03;;;9.23;100.00
4836;BME280;66719;51.226;6.902;2023-04-15T07:41:43;100222.31;;;9.24;100.00
4836;BME280;66719;51.226;6.902;2023-04-15T07:44:10;100236.16;;;9.27;100.00
4836;BME280;66719;51.226;6.902;2023-04-15T07:46:36;100230.03;;;9.30;100.00
4836;BME280;66719;51.226;6.902;2023-04-15T07:49:03;100236.03;;;9.33;100.00
4836;BME280;66719;51.226;6.902;2023-04-15T07:51:30;100240.31;;;9.36;100.00
4836;BME280;66719;51.226;6.902;2023-04-15T07:53:57;100242.00;;;9.40;100.00
4836;BME280;66719;51.226;6.902;2023-04-15T07:56:24;100249.88;;;9.39;100.00
4836;BME280;66719;51.226;6.902;2023-04-15T07:58:51;100248.03;;;9.42;100.00
4836;BME280;66719;51.226;6.902;2023-04-15T08:01:18;100249.78;;;9.42;100.00
4836;BME280;66719;51.226;6.902;2023-04-15T08:03:44;100245.38;;;9.44;100.00
4836;BME280;66719;51.226;6.902;2023-04-15T08:06:11;100255.72;;;9.50;100.00
4836;BME280;66719;51.226;6.902;2023-04-15T08:08:38;100261.72;;;9.53;100.00
4836;BME280;66719;51.226;6.902;2023-04-15T08:11:04;100266.06;;;9.56;100.00
4836;BME280;66719;51.226;6.902;2023-04-15T08:13:31;100269.53;;;9.55;100.00
4836;BME280;66719;51.226;6.902;2023-04-15T08:18:45;100279.03;;;9.59;100.00
4836;BME280;66719;51.226;6.902;2023-04-15T08:21:12;100282.63;;;9.53;100.00
4836;BME280;66719;51.226;6.902;2023-04-15T08:23:39;100282.59;;;9.56;100.00
4836;BME280;66719;51.226;6.902;2023-04-15T08:26:06;100278.97;;;9.62;100.00
4836;BME280;66719;51.226;6.902;2023-04-15T08:28:34;100284.03;;;9.70;100.00
4836;BME280;66719;51.226;6.902;2023-04-15T08:31:00;100287.63;;;9.66;100.00
4836;BME280;66719;51.226;6.902;2023-04-15T08:33:27;100292.09;;;9.59;100.00
4836;BME280;66719;51.226;6.902;2023-04-15T08:35:54;100284.31;;;9.57;100.00
4836;BME280;66719;51.226;6.902;2023-04-15T08:38:20;100286.88;;;9.59;100.00
4836;BME280;66719;51.226;6.902;2023-04-15T08:40:48;100295.41;;;9.67;100.00
4836;BME280;66719;51.226;6.902;2023-04-15T08:43:22;100306.53;;;9.77;100.00
4836;BME280;66719;51.226;6.902;2023-04-15T08:45:54;100310.91;;;9.76;100.00
4836;BME280;66719;51.226;6.902;2023-04-15T08:48:21;100301.22;;;9.80;100.00
4836;BME280;66719;51.226;6.902;2023-04-15T08:50:50;100307.47;;;9.74;100.00
4836;BME280;66719;51.226;6.902;2023-04-15T08:53:16;100309.91;;;9.82;100.00
4836;BME280;66719;51.226;6.902;2023-04-15T08:55:44;100307.28;;;9.82;100.00
4836;BME280;66719;51.226;6.902;2023-04-15T08:58:12;100308.13;;;9.84;100.00
4836;BME280;66719;51.226;6.902;2023-04-15T09:00:39;100306.19;;;9.92;100.00
4836;BME280;66719;51.226;6.902;2023-04-15T09:03:07;100310.34;;;10.01;100.00
4836;BME280;66719;51.226;6.902;2023-04-15T09:05:35;100318.13;;;10.04;100.00
4836;BME280;66719;51.226;6.902;2023-04-15T09:08:02;100311.94;;;10.08;100.00
4836;BME280;66719;51.226;6.902;2023-04-15T09:10:30;100319.09;;;9.98;100.00
4836;BME280;66719;51.226;6.902;2023-04-15T09:12:57;100326.09;;;9.98;100.00
4836;BME280;66719;51.226;6.902;2023-04-15T09:15:24;100313.13;;;9.93;100.00
4836;BME280;66719;51.226;6.902;2023-04-15T09:17:52;100314.78;;;9.97;100.00
4836;BME280;66719;51.226;6.902;2023-04-15T09:20:19;100318.13;;;10.04;100.00
4836;BME280;66719;51.226;6.902;2023-04-15T09:22:47;100330.94;;;10.14;100.00
4836;BME280;66719;51.226;6.902;2023-04-15T09:27:55;100330.75;;;10.25;100.00
4836;BME280;66719;51.226;6.902;2023-04-15T09:30:22;100326.44;;;10.21;100.00
4836;BME280;66719;51.226;6.902;2023-04-15T09:32:53;100329.75;;;10.29;100.00
4836;BME280;66719;51.226;6.902;2023-04-15T09:35:21;100334.78;;;10.38;100.00
4836;BME280;66719;51.226;6.902;2023-04-15T09:37:48;100333.66;;;10.48;100.00
4836;BME280;66719;51.226;6.902;2023-04-15T09:40:40;100325.47;;;10.62;100.00
4836;BME280;66719;51.226;6.902;2023-04-15T09:43:08;100341.22;;;10.59;100.00
4836;BME280;66719;51.226;6.902;2023-04-15T09:45:38;100344.03;;;10.53;100.00
4836;BME280;66719;51.226;6.902;2023-04-15T09:48:22;100344.69;;;10.60;100.00
4836;BME280;66719;51.226;6.902;2023-04-15T09:50:51;100347.31;;;10.60;100.00
4836;BME280;66719;51.226;6.902;2023-04-15T09:53:24;100353.47;;;10.59;100.00
4836;BME280;66719;51.226;6.902;2023-04-15T09:55:54;100352.41;;;10.66;100.00
4836;BME280;66719;51.226;6.902;2023-04-15T09:58:26;100346.03;;;10.78;100.00
4836;BME280;66719;51.226;6.902;2023-04-15T10:00:54;100348.16;;;10.96;100.00
4836;BME280;66719;51.226;6.902;2023-04-15T10:03:22;100347.78;;;11.10;100.00
4836;BME280;66719;51.226;6.902;2023-04-15T10:05:51;100357.75;;;11.28;100.00
4836;BME280;66719;51.226;6.902;2023-04-15T10:08:20;100373.22;;;11.37;100.00
4836;BME280;66719;51.226;6.902;2023-04-15T10:10:47;100365.38;;;11.37;100.00
4836;BME280;66719;51.226;6.902;2023-04-15T10:13:18;100364.50;;;11.37;100.00
4836;BME280;66719;51.226;6.902;2023-04-15T10:18:24;100382.66;;;11.12;100.00
4836;BME280;66719;51.226;6.902;2023-04-15T10:20:52;100378.31;;;11.12;100.00
4836;BME280;66719;51.226;6.902;2023-04-15T10:23:20;100379.88;;;11.18;100.00
4836;BME280;66719;51.226;6.902;2023-04-15T10:25:48;100376.53;;;11.13;100.00
4836;BME280;66719;51.226;6.902;2023-04-15T10:28:17;100381.78;;;11.11;100.00
4836;BME280;66719;51.226;6.902;2023-04-15T10:30:44;100373.13;;;11.09;100.00
4836;BME280;66719;51.226;6.902;2023-04-15T10:33:13;100382.09;;;11.00;100.00
4836;BME280;66719;51.226;6.902;2023-04-15T10:35:43;100383.53;;;11.12;100.00
4836;BME280;66719;51.226;6.902;2023-04-15T10:38:30;100388.34;;;11.27;100.00
4836;BME280;66719;51.226;6.902;2023-04-15T10:41:22;100397.69;;;11.38;100.00
4836;BME280;66719;51.226;6.902;2023-04-15T10:44:00;100394.41;;;11.31;100.00
4836;BME280;66719;51.226;6.902;2023-04-15T10:46:37;100394.44;;;11.29;100.00
4836;BME280;66719;51.226;6.902;2023-04-15T10:49:15;100404.53;;;11.11;100.00
4836;BME280;66719;51.226;6.902;2023-04-15T10:51:44;100399.38;;;11.08;100.00
4836;BME280;66719;51.226;6.902;2023-04-15T10:54:16;100400.13;;;11.13;100.00
4836;BME280;66719;51.226;6.902;2023-04-15T10:59:37;100407.47;;;10.98;100.00
4836;BME280;66719;51.226;6.902;2023-04-15T11:02:07;100412.97;;;10.88;100.00
4836;BME280;66719;51.226;6.902;2023-04-15T11:04:56;100415.50;;;10.91;100.00
4836;BME280;66719;51.226;6.902;2023-04-15T11:07:37;100409.50;;;10.87;100.00
4836;BME280;66719;51.226;6.902;2023-04-15T11:13:15;100417.09;;;10.98;100.00
4836;BME280;66719;51.226;6.902;2023-04-15T11:15:43;100416.22;;;10.97;100.00
4836;BME280;66719;51.226;6.902;2023-04-15T11:18:15;100418.81;;;10.99;100.00
4836;BME280;66719;51.226;6.902;2023-04-15T11:23:26;100418.28;;;10.85;100.00
4836;BME280;66719;51.226;6.902;2023-04-15T11:25:54;100429.66;;;10.84;100.00
4836;BME280;66719;51.226;6.902;2023-04-15T11:28:28;100433.97;;;10.86;100.00
4836;BME280;66719;51.226;6.902;2023-04-15T11:30:54;100431.22;;;10.91;100.00
4836;BME280;66719;51.226;6.902;2023-04-15T11:33:23;100429.00;;;11.10;100.00
4836;BME280;66719;51.226;6.902;2023-04-15T11:35:51;100438.28;;;11.23;100.00
4836;BME280;66719;51.226;6.902;2023-04-15T11:38:19;100441.53;;;11.32;100.00
4836;BME280;66719;51.226;6.902;2023-04-15T11:40:46;100432.66;;;11.38;100.00
4836;BME280;66719;51.226;6.902;2023-04-15T11:43:20;100452.66;;;11.41;100.00
4836;BME280;66719;51.226;6.902;2023-04-15T11:48:28;100444.41;;;11.56;100.00
4836;BME280;66719;51.226;6.902;2023-04-15T11:51:06;100439.50;;;11.42;100.00
4836;BME280;66719;51.226;6.902;2023-04-15T11:53:48;100445.25;;;11.24;100.00
4836;BME280;66719;51.226;6.902;2023-04-15T11:56:22;100449.28;;;11.01;100.00
4836;BME280;66719;51.226;6.902;2023-04-15T11:58:54;100461.03;;;10.87;100.00
4836;BME280;66719;51.226;6.902;2023-04-15T12:01:35;100453.41;;;10.76;100.00
4836;BME280;66719;51.226;6.902;2023-04-15T12:04:10;100474.22;;;10.82;100.00
4836;BME280;66719;51.226;6.902;2023-04-15T12:06:37;100471.59;;;10.82;100.00
4836;BME280;66719;51.226;6.902;2023-04-15T12:09:09;100470.78;;;10.80;100.00
4836;BME280;66719;51.226;6.902;2023-04-15T12:14:06;100489.34;;;10.71;100.00
4836;BME280;66719;51.226;6.902;2023-04-15T12:16:35;100485.69;;;10.76;100.00
4836;BME280;66719;51.226;6.902;2023-04-15T12:19:17;100486.41;;;10.83;100.00
4836;BME280;66719;51.226;6.902;2023-04-15T12:21:46;100487.09;;;10.91;100.00
4836;BME280;66719;51.226;6.902;2023-04-15T12:24:13;100498.47;;;10.90;100.00
4836;BME280;66719;51.226;6.902;2023-04-15T12:26:50;100495.75;;;10.95;100.00
4836;BME280;66719;51.226;6.902;2023-04-15T12:29:17;100500.31;;;10.85;100.00
4836;BME280;66719;51.226;6.902;2023-04-15T12:31:58;100509.03;;;10.87;100.00
4836;BME280;66719;51.226;6.902;2023-04-15T12:34:29;100506.53;;;10.81;100.00
4836;BME280;66719;51.226;6.902;2023-04-15T12:36:58;100516.22;;;10.79;100.00
4836;BME280;66719;51.226;6.902;2023-04-15T12:39:26;100523.25;;;10.75;100.00
4836;BME280;66719;51.226;6.902;2023-04-15T12:41:56;100529.44;;;10.73;100.00
4836;BME280;66719;51.226;6.902;2023-04-15T12:44:23;100530.50;;;10.64;100.00
4836;BME280;66719;51.226;6.902;2023-04-15T12:46:50;100529.66;;;10.62;100.00
4836;BME280;66719;51.226;6.902;2023-04-15T12:49:22;100534.91;;;10.62;100.00
4836;BME280;66719;51.226;6.902;2023-04-15T12:51:51;100535.09;;;10.53;100.00
4836;BME280;66719;51.226;6.902;2023-04-15T12:54:19;100534.28;;;10.50;100.00
4836;BME280;66719;51.226;6.902;2023-04-15T12:56:46;100536.06;;;10.49;100.00
4836;BME280;66719;51.226;6.902;2023-04-15T12:59:14;100540.38;;;10.50;100.00
4836;BME280;66719;51.226;6.902;2023-04-15T13:01:41;100550.84;;;10.50;100.00
4836;BME280;66719;51.226;6.902;2023-04-15T13:04:07;100558.75;;;10.48;100.00
4836;BME280;66719;51.226;6.902;2023-04-15T13:06:35;100561.34;;;10.50;100.00
4836;BME280;66719;51.226;6.902;2023-04-15T13:09:02;100564.69;;;10.57;100.00
4836;BME280;66719;51.226;6.902;2023-04-15T13:11:31;100562.88;;;10.59;100.00
4836;BME280;66719;51.226;6.902;2023-04-15T13:14:08;100569.97;;;10.55;100.00
4836;BME280;66719;51.226;6.902;2023-04-15T13:16:37;100579.50;;;10.58;100.00
4836;BME280;66719;51.226;6.902;2023-04-15T13:19:04;100582.94;;;10.60;100.00
4836;BME280;66719;51.226;6.902;2023-04-15T13:21:31;100581.03;;;10.68;100.00
4836;BME280;66719;51.226;6.902;2023-04-15T13:24:01;100587.94;;;10.72;100.00
4836;BME280;66719;51.226;6.902;2023-04-15T13:26:28;100578.41;;;10.69;100.00